createdAt,value
2019-01-16T00:01:41.499Z,99745.27
2019-01-16T00:04:15.486Z,99750.79
2019-01-16T00:07:03.021Z,99753.75
2019-01-16T00:09:34.011Z,99754.26
2019-01-16T00:12:07.999Z,99754.73
2019-01-16T00:14:55.210Z,99746.32
2019-01-16T00:17:35.038Z,99749.76
2019-01-16T00:20:09.468Z,99745.61
2019-01-16T00:22:56.627Z,99727.33
2019-01-16T00:25:27.675Z,99736.56
2019-01-16T00:28:10.474Z,99724.52
2019-01-16T00:30:41.718Z,99727.21
2019-01-16T00:33:21.312Z,99716.98
2019-01-16T00:35:55.024Z,99725.78
2019-01-16T00:38:34.815Z,99730.52
2019-01-16T00:41:15.082Z,99721.48
2019-01-16T00:43:46.096Z,99724.28
2019-01-16T00:46:33.332Z,99730.83
2019-01-16T00:49:04.334Z,99729.89
2019-01-16T00:51:51.442Z,99718.48
2019-01-16T00:54:28.677Z,99716.52
2019-01-16T00:57:08.683Z,99713.34
2019-01-16T00:59:42.220Z,99712.48
2019-01-16T01:02:30.819Z,99711.06
2019-01-16T01:05:19.765Z,99707.43
2019-01-16T01:07:56.628Z,99705.73
2019-01-16T01:10:33.841Z,99703.72
2019-01-16T01:13:23.320Z,99700.68
2019-01-16T01:15:59.959Z,99700.41
2019-01-16T01:18:49.089Z,99692.70
2019-01-16T01:21:35.397Z,99692.03
2019-01-16T01:24:12.999Z,99698.55
2019-01-16T01:27:00.498Z,99701.42
2019-01-16T01:29:50.087Z,99698.78
2019-01-16T01:32:21.097Z,99690.53
2019-01-16T01:35:07.252Z,99698.66
2019-01-16T01:37:54.986Z,99693.45
2019-01-16T01:40:31.989Z,99699.06
2019-01-16T01:43:19.403Z,99689.23
2019-01-16T01:46:02.417Z,99691.72
2019-01-16T01:48:39.930Z,99693.50
2019-01-16T01:51:18.341Z,99690.18
2019-01-16T01:54:04.136Z,99683.83
2019-01-16T01:56:35.405Z,99678.70
2019-01-16T01:59:42.314Z,99661.48
2019-01-16T02:02:16.590Z,99671.83
2019-01-16T02:04:56.054Z,99670.09
2019-01-16T02:07:29.995Z,99672.45
2019-01-16T02:10:16.834Z,99674.66
2019-01-16T02:12:50.857Z,99668.82
2019-01-16T02:15:33.764Z,99660.17
2019-01-16T02:18:19.676Z,99665.62
2019-01-16T02:20:50.755Z,99665.19
2019-01-16T02:23:30.965Z,99663.56
2019-01-16T02:26:05.112Z,99667.67
2019-01-16T02:28:54.319Z,99658.83
2019-01-16T02:31:27.754Z,99657.92
2019-01-16T02:34:08.202Z,99655.72
2019-01-16T02:36:39.230Z,99655.02
2019-01-16T02:39:13.086Z,99648.97
2019-01-16T02:41:59.951Z,99647.47
2019-01-16T02:44:30.962Z,99647.80
2019-01-16T02:47:17.825Z,99641.91
2019-01-16T02:49:48.864Z,99638.13
2019-01-16T02:52:28.885Z,99635.83
2019-01-16T02:55:16.555Z,99638.36
2019-01-16T02:57:47.567Z,99642.53
2019-01-16T03:00:21.758Z,99637.84
2019-01-16T03:02:52.772Z,99636.92
2019-01-16T03:05:32.642Z,99636.17
2019-01-16T03:08:06.296Z,99625.67
2019-01-16T03:10:37.308Z,99630.56
2019-01-16T03:13:08.313Z,99614.73
2019-01-16T03:15:57.742Z,99618.91
2019-01-16T03:18:28.766Z,99617.02
2019-01-16T03:21:16.390Z,99617.28
2019-01-16T03:23:59.697Z,99604.11
2019-01-16T03:26:39.425Z,99602.48
2019-01-16T03:29:10.480Z,99593.52
2019-01-16T03:31:50.266Z,99593.17
2019-01-16T03:34:27.050Z,99581.41
2019-01-16T03:37:00.497Z,99574.34
2019-01-16T03:39:37.269Z,99580.63
2019-01-16T03:42:17.059Z,99582.67
2019-01-16T03:45:02.995Z,99566.86
2019-01-16T03:47:36.428Z,99561.18
2019-01-16T03:50:13.224Z,99573.70
2019-01-16T03:53:00.313Z,99568.69
2019-01-16T03:55:36.765Z,99562.10
2019-01-16T03:58:10.559Z,99554.56
2019-01-16T04:00:59.347Z,99552.11
2019-01-16T04:03:42.412Z,99547.58
2019-01-16T04:06:31.230Z,99548.56
2019-01-16T04:09:02.241Z,99537.11
2019-01-16T04:11:48.427Z,99536.05
2019-01-16T04:14:22.301Z,99541.33
2019-01-16T04:16:59.142Z,99535.80
2019-01-16T04:19:30.155Z,99525.90
2019-01-16T04:22:01.163Z,99534.06
2019-01-16T04:24:32.187Z,99527.95
2019-01-16T04:27:12.666Z,99532.16
2019-01-16T04:29:46.556Z,99521.55
2019-01-16T04:32:17.604Z,99529.55
2019-01-16T04:35:06.695Z,99518.14
2019-01-16T04:37:53.639Z,99511.22
2019-01-16T04:40:27.829Z,99503.17
2019-01-16T04:43:15.246Z,99502.06
2019-01-16T04:45:48.904Z,99499.31
2019-01-16T04:48:38.204Z,99499.94
2019-01-16T04:51:09.203Z,99497.63
2019-01-16T04:53:49.277Z,99502.42
2019-01-16T04:56:36.145Z,99502.47
2019-01-16T04:59:13.157Z,99503.53
2019-01-16T05:02:02.473Z,99500.69
2019-01-16T05:04:36.055Z,99505.31
2019-01-16T05:07:07.338Z,99503.63
2019-01-16T05:09:56.803Z,99495.05
2019-01-16T05:12:29.401Z,99492.45
2019-01-16T05:15:01.389Z,99487.20
2019-01-16T05:17:50.175Z,99490.16
2019-01-16T05:20:36.459Z,99486.27
2019-01-16T05:23:07.464Z,99492.85
2019-01-16T05:25:44.371Z,99478.02
2019-01-16T05:28:17.817Z,99489.93
2019-01-16T05:31:04.720Z,99488.63
2019-01-16T05:33:35.752Z,99481.41
2019-01-16T05:36:12.407Z,99468.89
2019-01-16T05:38:55.484Z,99470.04
2019-01-16T05:41:38.431Z,99444.52
2019-01-16T05:44:09.470Z,99468.74
2019-01-16T05:46:40.475Z,99464.17
2019-01-16T05:49:11.476Z,99453.95
2019-01-16T05:51:59.028Z,99465.94
2019-01-16T05:54:45.931Z,99455.73
2019-01-16T05:57:19.844Z,99443.16
2019-01-16T05:59:59.634Z,99464.61
2019-01-16T06:02:42.328Z,99456.68
2019-01-16T06:05:15.170Z,99446.42
2019-01-16T06:07:46.448Z,99440.22
2019-01-16T06:10:32.534Z,99466.89
2019-01-16T06:13:20.005Z,99454.53
2019-01-16T06:15:50.957Z,99442.79
2019-01-16T06:18:21.973Z,99459.95
2019-01-16T06:21:04.738Z,99450.17
2019-01-16T06:23:51.797Z,99457.94
2019-01-16T06:26:25.735Z,99457.47
2019-01-16T06:29:02.370Z,99450.41
2019-01-16T06:31:33.375Z,99446.06
2019-01-16T06:34:04.391Z,99424.16
2019-01-16T06:36:46.875Z,99445.91
2019-01-16T06:39:23.770Z,99446.61
2019-01-16T06:42:10.033Z,99447.69
2019-01-16T06:44:41.109Z,99441.90
2019-01-16T06:47:12.138Z,99445.95
2019-01-16T06:49:43.128Z,99446.34
2019-01-16T06:52:17.226Z,99447.01
2019-01-16T06:55:06.043Z,99447.88
2019-01-16T06:57:55.120Z,99453.05
2019-01-16T07:00:32.600Z,99445.91
2019-01-16T07:03:22.967Z,99437.53
2019-01-16T07:05:56.886Z,99447.56
2019-01-16T07:08:30.621Z,99438.41
2019-01-16T07:11:05.301Z,99440.53
2019-01-16T07:13:46.672Z,99436.48
2019-01-16T07:16:22.593Z,99434.16
2019-01-16T07:19:02.314Z,99440.62
2019-01-16T07:21:45.034Z,99418.73
2019-01-16T07:24:18.456Z,99433.25
2019-01-16T07:26:52.482Z,99441.82
2019-01-16T07:29:23.496Z,99435.83
2019-01-16T07:32:10.341Z,99437.36
2019-01-16T07:34:41.590Z,99430.98
2019-01-16T07:37:29.188Z,99428.69
2019-01-16T07:40:05.752Z,99426.68
2019-01-16T07:42:46.632Z,99429.30
2019-01-16T07:45:15.038Z,99427.41
2019-01-16T07:47:46.038Z,99429.41
2019-01-16T07:50:19.957Z,99429.70
2019-01-16T07:52:59.884Z,99425.98
2019-01-16T07:55:30.908Z,99431.98
2019-01-16T07:58:04.763Z,99437.87
2019-01-16T08:00:38.454Z,99447.48
2019-01-16T08:03:21.157Z,99445.39
2019-01-16T08:05:58.077Z,99442.08
2019-01-16T08:08:45.355Z,99438.46
2019-01-16T08:11:19.049Z,99448.73
2019-01-16T08:13:55.804Z,99430.03
2019-01-16T08:16:26.827Z,99427.13
2019-01-16T08:18:57.830Z,99434.03
2019-01-16T08:21:28.848Z,99428.70
2019-01-16T08:23:59.860Z,99433.24
2019-01-16T08:26:39.341Z,99433.88
2019-01-16T08:29:26.354Z,99429.54
2019-01-16T08:31:59.822Z,99431.86
2019-01-16T08:34:39.866Z,99436.84
2019-01-16T08:37:26.708Z,99440.07
2019-01-16T08:40:12.843Z,99431.39
2019-01-16T08:42:43.843Z,99432.07
2019-01-16T08:45:14.851Z,99440.06
2019-01-16T08:47:45.949Z,99439.44
2019-01-16T08:50:32.511Z,99433.23
2019-01-16T08:53:03.374Z,99427.29
2019-01-16T08:55:50.655Z,99433.22
2019-01-16T08:58:39.409Z,99433.34
2019-01-16T09:01:19.219Z,99432.48
2019-01-16T09:03:50.462Z,99432.68
2019-01-16T09:06:27.018Z,99424.40
2019-01-16T09:09:00.708Z,99423.38
2019-01-16T09:11:49.924Z,99413.98
2019-01-16T09:14:20.924Z,99417.62
2019-01-16T09:16:54.414Z,99408.38
2019-01-16T09:19:30.865Z,99415.44
2019-01-16T09:22:01.867Z,99404.03
2019-01-16T09:24:38.726Z,99397.61
2019-01-16T09:27:15.677Z,99390.83
2019-01-16T09:29:52.113Z,99382.11
2019-01-16T09:32:39.636Z,99377.84
2019-01-16T09:35:25.726Z,99381.11
2019-01-16T09:37:56.736Z,99382.41
2019-01-16T09:40:39.258Z,99383.11
2019-01-16T09:43:21.917Z,99375.23
2019-01-16T09:46:07.899Z,99368.91
2019-01-16T09:48:41.446Z,99365.81
2019-01-16T09:51:13.069Z,99351.09
2019-01-16T09:53:52.788Z,99366.03
2019-01-16T09:56:39.629Z,99364.50
2019-01-16T09:59:10.631Z,99357.98
2019-01-16T10:01:59.080Z,99348.88
2019-01-16T10:04:30.069Z,99349.44
2019-01-16T10:07:01.147Z,99341.58
2019-01-16T10:09:50.382Z,99348.81
2019-01-16T10:12:33.569Z,99345.66
2019-01-16T10:15:13.351Z,99336.58
2019-01-16T10:17:47.078Z,99348.88
2019-01-16T10:20:20.779Z,99351.44
2019-01-16T10:23:07.633Z,99339.66
2019-01-16T10:25:53.620Z,99329.52
2019-01-16T10:28:42.571Z,99322.25
2019-01-16T10:31:13.650Z,99325.22
2019-01-16T10:33:47.454Z,99321.40
2019-01-16T10:36:34.247Z,99322.72
2019-01-16T10:39:06.816Z,99310.05
2019-01-16T10:41:40.793Z,99309.53
2019-01-16T10:44:14.593Z,99304.24
2019-01-16T10:46:45.667Z,99302.00
2019-01-16T10:49:16.676Z,99286.06
2019-01-16T10:52:03.844Z,99291.59
2019-01-16T10:54:53.057Z,99286.44
2019-01-16T10:57:32.735Z,99278.98
2019-01-16T11:00:20.574Z,99275.74
2019-01-16T11:03:09.928Z,99272.36
2019-01-16T11:05:49.911Z,99267.59
2019-01-16T11:08:20.971Z,99244.80
2019-01-16T11:11:04.117Z,99255.60
2019-01-16T11:13:51.383Z,99244.87
2019-01-16T11:16:31.364Z,99240.22
2019-01-16T11:19:08.346Z,99224.69
2019-01-16T11:21:55.366Z,99228.62
2019-01-16T11:24:26.387Z,99215.42
2019-01-16T11:27:00.381Z,99222.34
2019-01-16T11:29:37.482Z,99213.08
2019-01-16T11:32:23.558Z,99209.44
2019-01-16T11:34:54.557Z,99208.86
2019-01-16T11:37:41.797Z,99203.95
2019-01-16T11:40:21.360Z,99202.13
2019-01-16T11:42:54.756Z,99195.89
2019-01-16T11:45:25.837Z,99189.59
2019-01-16T11:48:12.790Z,99183.38
2019-01-16T11:50:43.796Z,99175.47
2019-01-16T11:53:14.832Z,99164.94
2019-01-16T11:55:54.794Z,99158.63
2019-01-16T11:58:28.438Z,99160.53
2019-01-16T12:01:05.479Z,99152.16
2019-01-16T12:03:39.404Z,99147.50
2019-01-16T12:06:10.413Z,99148.64
2019-01-16T12:08:53.092Z,99138.87
2019-01-16T12:11:33.272Z,99136.12
2019-01-16T12:14:10.338Z,99140.14
2019-01-16T12:16:47.329Z,99135.98
2019-01-16T12:19:23.779Z,99130.72
2019-01-16T12:21:57.462Z,99113.03
2019-01-16T12:24:40.522Z,99104.59
2019-01-16T12:27:11.520Z,99087.72
2019-01-16T12:29:57.294Z,99101.14
2019-01-16T12:32:28.309Z,99086.55
2019-01-16T12:35:07.890Z,99084.94
2019-01-16T12:37:50.390Z,99070.59
2019-01-16T12:40:21.469Z,99060.95
2019-01-16T12:42:53.607Z,99053.27
2019-01-16T12:45:30.548Z,99058.30
2019-01-16T12:48:01.541Z,99052.66
2019-01-16T12:50:42.788Z,99057.45
2019-01-16T12:53:16.289Z,99049.09
2019-01-16T12:56:03.921Z,99047.70
2019-01-16T12:58:40.717Z,99037.55
2019-01-16T13:01:17.678Z,99038.70
2019-01-16T13:03:57.441Z,99035.63
2019-01-16T13:06:30.862Z,99029.48
2019-01-16T13:09:04.836Z,99018.41
2019-01-16T13:11:35.850Z,99010.91
2019-01-16T13:14:06.928Z,99008.56
2019-01-16T13:16:38.204Z,99005.09
2019-01-16T13:19:24.192Z,98998.56
2019-01-16T13:21:55.236Z,98983.76
2019-01-16T13:24:34.769Z,98979.19
2019-01-16T13:27:11.587Z,98968.53
2019-01-16T13:29:42.576Z,98965.89
2019-01-16T13:32:31.876Z,98952.70
2019-01-16T13:35:11.712Z,98949.63
2019-01-16T13:37:45.426Z,98942.62
2019-01-16T13:40:29.561Z,98940.75
2019-01-16T13:43:02.968Z,98937.12
2019-01-16T13:45:42.861Z,98931.66
2019-01-16T13:48:22.696Z,98931.03
2019-01-16T13:51:08.495Z,98931.34
2019-01-16T13:53:42.718Z,98928.38
2019-01-16T13:56:16.415Z,98926.68
2019-01-16T13:58:50.128Z,98914.33
2019-01-16T14:01:23.808Z,98931.07
2019-01-16T14:04:03.817Z,98928.87
2019-01-16T14:06:37.526Z,98928.12
2019-01-16T14:09:12.320Z,98922.39
2019-01-16T14:11:59.919Z,98915.55
2019-01-16T14:14:39.927Z,98915.62
2019-01-16T14:17:16.852Z,98919.80
2019-01-16T14:20:04.352Z,98903.82
2019-01-16T14:22:44.305Z,98893.24
2019-01-16T14:25:31.530Z,98896.25
2019-01-16T14:28:05.251Z,98883.54
2019-01-16T14:30:51.660Z,98882.17
2019-01-16T14:33:22.674Z,98881.61
2019-01-16T14:35:53.711Z,98882.39
2019-01-16T14:38:25.034Z,98868.80
2019-01-16T14:40:56.043Z,98866.60
2019-01-16T14:43:30.209Z,98864.20
2019-01-16T14:46:01.249Z,98859.65
2019-01-16T14:48:38.067Z,98863.70
2019-01-16T14:51:09.276Z,98860.11
2019-01-16T14:53:40.357Z,98858.96
2019-01-16T14:56:26.796Z,98847.47
2019-01-16T14:58:57.808Z,98847.66
2019-01-16T15:01:34.385Z,98844.36
2019-01-16T15:04:05.458Z,98835.97
2019-01-16T15:06:36.452Z,98831.75
2019-01-16T15:09:18.208Z,98820.31
2019-01-16T15:11:49.217Z,98822.42
2019-01-16T15:14:20.486Z,98814.44
2019-01-16T15:16:53.887Z,98818.47
2019-01-16T15:19:34.068Z,98820.57
2019-01-16T15:22:07.498Z,98810.27
2019-01-16T15:24:38.579Z,98811.37
2019-01-16T15:27:09.610Z,98804.30
2019-01-16T15:29:46.074Z,98798.28
2019-01-16T15:32:31.786Z,98790.36
2019-01-16T15:35:05.405Z,98785.38
2019-01-16T15:37:39.216Z,98780.73
2019-01-16T15:40:17.051Z,98766.70
2019-01-16T15:43:04.336Z,98767.59
2019-01-16T15:45:42.647Z,98765.02
2019-01-16T15:48:13.681Z,98766.48
2019-01-16T15:50:48.358Z,98753.05
2019-01-16T15:53:19.584Z,98751.73
2019-01-16T15:55:53.302Z,98753.64
2019-01-16T15:58:33.537Z,98747.82
2019-01-16T16:01:04.547Z,98747.86
2019-01-16T16:03:38.032Z,98747.50
2019-01-16T16:06:15.375Z,98739.16
2019-01-16T16:08:49.091Z,98734.45
2019-01-16T16:11:36.161Z,98737.94
2019-01-16T16:14:10.530Z,98736.58
2019-01-16T16:16:47.455Z,98729.89
2019-01-16T16:19:24.441Z,98734.45
2019-01-16T16:22:04.676Z,98724.73
2019-01-16T16:24:35.696Z,98720.41
2019-01-16T16:27:22.484Z,98715.27
2019-01-16T16:29:56.088Z,98714.76
2019-01-16T16:32:27.154Z,98713.14
2019-01-16T16:35:00.911Z,98703.05
2019-01-16T16:37:34.529Z,98698.88
2019-01-16T16:40:12.868Z,98699.53
2019-01-16T16:42:53.357Z,98699.45
2019-01-16T16:45:27.314Z,98702.73
2019-01-16T16:47:58.564Z,98703.88
2019-01-16T16:50:44.705Z,98699.90
2019-01-16T16:53:21.746Z,98697.48
2019-01-16T16:56:08.686Z,98699.41
2019-01-16T16:58:39.691Z,98694.06
2019-01-16T17:01:26.552Z,98695.63
2019-01-16T17:04:06.344Z,98696.94
2019-01-16T17:06:37.352Z,98694.34
2019-01-16T17:09:18.897Z,98696.25
2019-01-16T17:11:55.392Z,98692.34
2019-01-16T17:14:32.518Z,98688.16
2019-01-16T17:17:03.753Z,98678.88
2019-01-16T17:19:34.758Z,98680.19
2019-01-16T17:22:08.528Z,98676.01
2019-01-16T17:24:54.680Z,98671.77
2019-01-16T17:27:31.374Z,98678.53
2019-01-16T17:30:05.619Z,98677.22
2019-01-16T17:32:36.575Z,98664.81
2019-01-16T17:35:25.005Z,98666.14
2019-01-16T17:38:01.880Z,98671.63
2019-01-16T17:40:33.023Z,98665.82
2019-01-16T17:43:06.746Z,98668.80
2019-01-16T17:45:43.775Z,98671.80
2019-01-16T17:48:21.068Z,98666.11
2019-01-16T17:51:07.159Z,98667.08
2019-01-16T17:53:56.430Z,98667.86
2019-01-16T17:56:30.287Z,98673.77
2019-01-16T17:59:01.279Z,98672.41
2019-01-16T18:01:32.290Z,98661.04
2019-01-16T18:04:03.532Z,98683.06
2019-01-16T18:06:34.904Z,98671.75
2019-01-16T18:09:10.773Z,98667.95
2019-01-16T18:11:57.663Z,98665.91
2019-01-16T18:14:34.119Z,98674.59
2019-01-16T18:17:08.395Z,98671.69
2019-01-16T18:19:39.408Z,98683.82
2019-01-16T18:22:13.376Z,98664.67
2019-01-16T18:24:44.572Z,98670.36
2019-01-16T18:27:24.581Z,98672.55
2019-01-16T18:29:58.224Z,98662.56
2019-01-16T18:32:29.285Z,98656.45
2019-01-16T18:35:00.278Z,98652.34
2019-01-16T18:37:31.289Z,98654.20
2019-01-16T18:40:02.278Z,98651.37
2019-01-16T18:42:33.292Z,98657.36
2019-01-16T18:45:10.101Z,98652.67
2019-01-16T18:47:57.342Z,98669.09
2019-01-16T18:50:28.355Z,98653.70
2019-01-16T18:52:59.345Z,98667.68
2019-01-16T18:55:35.917Z,98668.18
2019-01-16T18:58:15.835Z,98679.02
2019-01-16T19:00:59.044Z,98651.05
2019-01-16T19:03:30.441Z,98649.64
2019-01-16T19:06:17.543Z,98642.00
2019-01-16T19:09:01.120Z,98646.72
2019-01-16T19:11:34.573Z,98638.05
2019-01-16T19:14:09.053Z,98642.66
2019-01-16T19:16:56.263Z,98655.31
2019-01-16T19:19:29.967Z,98631.61
2019-01-16T19:22:17.047Z,98597.08
2019-01-16T19:24:54.110Z,98610.55
2019-01-16T19:27:28.084Z,98584.30
2019-01-16T19:30:10.813Z,98598.57
2019-01-16T19:32:41.828Z,98608.02
2019-01-16T19:35:31.046Z,98595.44
2019-01-16T19:38:11.036Z,98587.28
2019-01-16T19:40:44.763Z,98585.38
2019-01-16T19:43:15.765Z,98576.70
2019-01-16T19:45:49.790Z,98552.89
2019-01-16T19:48:36.820Z,98580.19
2019-01-16T19:51:13.590Z,98576.41
2019-01-16T19:53:50.253Z,98562.44
2019-01-16T19:56:29.947Z,98570.03
2019-01-16T19:59:00.967Z,98563.31
2019-01-16T20:01:43.753Z,98556.04
2019-01-16T20:04:26.953Z,98542.22
2019-01-16T20:07:00.612Z,98534.36
2019-01-16T20:09:40.502Z,98543.53
2019-01-16T20:12:20.552Z,98528.30
2019-01-16T20:14:54.295Z,98537.78
2019-01-16T20:17:37.314Z,98535.07
2019-01-16T20:20:22.003Z,98528.79
2019-01-16T20:23:11.279Z,98522.53
2019-01-16T20:25:57.079Z,98530.69
2019-01-16T20:28:43.941Z,98532.08
2019-01-16T20:31:15.772Z,98524.76
2019-01-16T20:34:03.094Z,98526.66
2019-01-16T20:36:43.166Z,98528.79
2019-01-16T20:39:19.779Z,98505.28
2019-01-16T20:41:59.249Z,98506.51
2019-01-16T20:44:39.698Z,98514.45
2019-01-16T20:47:26.807Z,98514.66
2019-01-16T20:50:15.876Z,98488.95
2019-01-16T20:52:46.919Z,98510.55
2019-01-16T20:55:23.853Z,98516.06
2019-01-16T20:58:11.683Z,98511.95
2019-01-16T21:00:57.493Z,98492.52
2019-01-16T21:03:44.577Z,98506.51
2019-01-16T21:06:21.209Z,98500.13
2019-01-16T21:08:52.274Z,98487.20
2019-01-16T21:11:38.467Z,98490.20
2019-01-16T21:14:24.418Z,98485.11
2019-01-16T21:16:55.431Z,98492.45
2019-01-16T21:19:26.464Z,98481.01
2019-01-16T21:22:13.412Z,98492.76
2019-01-16T21:25:01.140Z,98483.31
2019-01-16T21:27:47.465Z,98496.86
2019-01-16T21:30:35.697Z,98486.56
2019-01-16T21:33:10.529Z,98490.20
2019-01-16T21:35:55.940Z,98488.52
2019-01-16T21:38:34.063Z,98461.25
2019-01-16T21:41:13.973Z,98465.67
2019-01-16T21:44:01.185Z,98468.50
2019-01-16T21:46:48.433Z,98468.98
2019-01-16T21:49:19.773Z,98460.84
2019-01-16T21:52:02.817Z,98461.16
2019-01-16T21:54:42.591Z,98454.45
2019-01-16T21:57:15.995Z,98453.98
2019-01-16T21:59:52.928Z,98473.10
2019-01-16T22:02:35.828Z,98462.45
2019-01-16T22:05:10.174Z,98469.14
2019-01-16T22:07:43.674Z,98468.05
2019-01-16T22:10:20.855Z,98460.96
2019-01-16T22:12:52.138Z,98462.23
2019-01-16T22:15:26.072Z,98472.47
2019-01-16T22:18:12.082Z,98481.31
2019-01-16T22:21:00.902Z,98476.80
2019-01-16T22:23:40.857Z,98479.13
2019-01-16T22:26:14.395Z,98491.44
2019-01-16T22:28:45.404Z,98486.39
2019-01-16T22:31:21.859Z,98472.30
2019-01-16T22:33:52.866Z,98465.77
2019-01-16T22:36:23.891Z,98462.14
2019-01-16T22:39:00.734Z,98480.16
2019-01-16T22:41:31.754Z,98470.34
2019-01-16T22:44:03.091Z,98474.76
2019-01-16T22:46:42.649Z,98479.02
2019-01-16T22:49:16.481Z,98476.75
2019-01-16T22:51:53.207Z,98466.37
2019-01-16T22:54:24.256Z,98464.85
2019-01-16T22:56:58.256Z,98449.95
2019-01-16T22:59:29.267Z,98461.44
2019-01-16T23:02:00.771Z,98430.29
2019-01-16T23:04:48.518Z,98448.30
2019-01-16T23:07:19.776Z,98442.46
2019-01-16T23:09:50.774Z,98443.10
2019-01-16T23:12:27.566Z,98442.22
2019-01-16T23:15:04.181Z,98428.17
2019-01-16T23:17:38.480Z,98423.90
2019-01-16T23:20:29.240Z,98424.30
2019-01-16T23:23:03.083Z,98424.25
2019-01-16T23:25:34.844Z,98428.88
2019-01-16T23:28:06.117Z,98416.89
2019-01-16T23:30:40.052Z,98426.47
2019-01-16T23:33:17.118Z,98451.47
2019-01-16T23:35:53.943Z,98437.76
2019-01-16T23:38:25.301Z,98440.31
2019-01-16T23:40:56.341Z,98436.80
2019-01-16T23:43:29.937Z,98442.78
2019-01-16T23:46:00.958Z,98434.45
2019-01-16T23:48:38.064Z,98434.50
2019-01-16T23:51:25.337Z,98436.66
2019-01-16T23:53:56.419Z,98434.33
2019-01-16T23:56:43.766Z,98436.86
2019-01-16T23:59:20.754Z,98431.05
